Time;durP1;ratioP1;P1;durP2;ratioP2;P2;SDS_P1;SDS_P2;PMS_P1;PMS_P2;Temp;Humidity;BMP_temperature;BMP_pressure;BME280_temperature;BME280_humidity;BME280_pressure;Samples;Min_cycle;Max_cycle;Signal;HPM_P1;HPM_P2
2022/06/24 00:01:38;;;;;;;;;4.50;4.50;;;;;;;;4972314;28;46052;-70
2022/06/24 00:04:04;;;;;;;;;5.50;5.50;;;;;;;;4972267;28;45701;-69
2022/06/24 00:06:41;;;;;;;;;5.50;5.00;;;;;;;;4972925;28;45660;-69
2022/06/24 00:09:06;;;;;;;;;4.50;4.50;;;;;;;;4971935;28;45465;-69
2022/06/24 00:11:31;;;;;;;;;4.50;4.50;;;;;;;;4971951;28;46321;-69
2022/06/24 00:14:10;;;;;;;;;5.00;5.00;;;;;;;;4971975;28;45910;-69
2022/06/24 00:16:51;;;;;;;;;4.50;4.25;;;;;;;;4972364;28;45516;-69
2022/06/24 00:19:16;;;;;;;;;7.00;6.50;;;;;;;;4957214;28;45486;-69
2022/06/24 00:21:42;;;;;;;;;4.75;4.75;;;;;;;;4972551;28;46001;-69
2022/06/24 00:24:19;;;;;;;;;6.50;5.50;;;;;;;;4971728;28;45531;-68
2022/06/24 00:26:44;;;;;;;;;3.75;3.75;;;;;;;;4971802;28;45435;-68
2022/06/24 00:29:14;;;;;;;;;4.75;4.75;;;;;;;;4971830;28;45866;-68
2022/06/24 00:31:39;;;;;;;;;4.25;4.25;;;;;;;;5003163;28;48822;-68
2022/06/24 00:34:21;;;;;;;;;5.00;5.00;;;;;;;;4971304;28;46094;-70
2022/06/24 00:36:46;;;;;;;;;5.00;5.00;;;;;;;;4968498;28;45424;-69
2022/06/24 00:39:11;;;;;;;;;4.25;4.25;;;;;;;;4967323;28;45912;-69
2022/06/24 00:41:37;;;;;;;;;5.75;5.75;;;;;;;;4965114;28;48697;-68
2022/06/24 00:44:03;;;;;;;;;4.75;4.75;;;;;;;;4970759;28;45445;-68
2022/06/24 00:46:34;;;;;;;;;5.00;4.50;;;;;;;;4970567;28;45554;-69
2022/06/24 00:49:00;;;;;;;;;5.50;4.75;;;;;;;;4969762;28;45483;-69
2022/06/24 00:51:33;;;;;;;;;5.00;4.00;;;;;;;;4969234;28;48434;-69
2022/06/24 00:54:05;;;;;;;;;5.00;4.50;;;;;;;;4970031;28;45446;-69
2022/06/24 00:56:31;;;;;;;;;6.25;5.50;;;;;;;;4969385;28;45595;-68
2022/06/24 00:58:57;;;;;;;;;5.50;4.75;;;;;;;;4971494;28;45540;-68
2022/06/24 01:01:30;;;;;;;;;4.25;4.25;;;;;;;;5002849;28;47568;-67
2022/06/24 01:03:56;;;;;;;;;3.75;3.25;;;;;;;;4971447;28;45538;-68
2022/06/24 01:06:22;;;;;;;;;4.00;4.00;;;;;;;;4972020;28;45505;-68
2022/06/24 01:08:47;;;;;;;;;5.00;5.00;;;;;;;;4971465;28;45616;-68
2022/06/24 01:11:12;;;;;;;;;5.00;5.00;;;;;;;;4971590;28;45712;-66
2022/06/24 01:13:38;;;;;;;;;4.25;4.25;;;;;;;;4971506;28;45452;-68
2022/06/24 01:16:03;;;;;;;;;4.00;4.00;;;;;;;;4970181;28;45517;-66
2022/06/24 01:18:28;;;;;;;;;4.50;4.00;;;;;;;;4972029;28;45553;-68
2022/06/24 01:20:54;;;;;;;;;4.00;4.00;;;;;;;;4971051;28;46303;-67
2022/06/24 01:23:25;;;;;;;;;5.25;4.25;;;;;;;;4971029;28;45533;-67
2022/06/24 01:25:50;;;;;;;;;5.00;4.00;;;;;;;;4969563;28;45649;-68
2022/06/24 01:28:16;;;;;;;;;5.25;5.00;;;;;;;;4968842;28;45524;-67
2022/06/24 01:30:41;;;;;;;;;4.50;3.50;;;;;;;;4968301;28;48722;-67
2022/06/24 01:33:06;;;;;;;;;3.25;3.25;;;;;;;;4969512;28;45839;-68
2022/06/24 01:35:31;;;;;;;;;3.50;3.50;;;;;;;;4967884;28;45554;-66
2022/06/24 01:37:57;;;;;;;;;5.50;5.50;;;;;;;;4969193;28;45530;-67
2022/06/24 01:40:22;;;;;;;;;5.00;5.00;;;;;;;;5002212;28;48680;-67
2022/06/24 01:42:47;;;;;;;;;7.25;5.25;;;;;;;;4971056;28;45415;-67
2022/06/24 01:45:12;;;;;;;;;5.75;4.25;;;;;;;;4971417;28;45375;-67
2022/06/24 01:47:37;;;;;;;;;4.50;4.50;;;;;;;;4994660;28;45414;-67
2022/06/24 01:50:03;;;;;;;;;7.75;5.75;;;;;;;;4961874;28;46248;-67
2022/06/24 01:52:28;;;;;;;;;4.00;3.50;;;;;;;;5002021;28;45454;-68
2022/06/24 01:54:53;;;;;;;;;7.25;7.25;;;;;;;;4971084;28;45717;-71
2022/06/24 01:57:19;;;;;;;;;7.00;6.50;;;;;;;;4971284;28;45503;-68
2022/06/24 01:59:44;;;;;;;;;5.50;5.50;;;;;;;;4993823;28;47239;-70
2022/06/24 02:02:09;;;;;;;;;6.75;5.75;;;;;;;;4962303;28;45625;-70
2022/06/24 02:04:34;;;;;;;;;5.75;4.25;;;;;;;;5001968;28;45947;-69
2022/06/24 02:06:59;;;;;;;;;6.00;4.75;;;;;;;;4970400;28;45692;-68
2022/06/24 02:09:25;;;;;;;;;4.50;4.50;;;;;;;;4988711;28;47434;-68
2022/06/24 02:14:33;;;;;;;;;4.50;4.50;;;;;;;;4970075;28;45526;-69
2022/06/24 02:16:59;;;;;;;;;5.75;4.50;;;;;;;;4970150;28;45539;-69
2022/06/24 02:19:24;;;;;;;;;5.00;4.25;;;;;;;;4970159;28;46589;-67
2022/06/24 02:21:49;;;;;;;;;4.75;4.75;;;;;;;;4970603;28;45624;-67
2022/06/24 02:24:15;;;;;;;;;4.00;4.00;;;;;;;;4970692;28;45579;-69
2022/06/24 02:26:40;;;;;;;;;3.75;3.75;;;;;;;;4969965;28;45568;-68
2022/06/24 02:29:06;;;;;;;;;2.50;2.00;;;;;;;;4969985;28;46489;-66
2022/06/24 02:31:31;;;;;;;;;4.75;3.75;;;;;;;;4968753;28;45597;-67
2022/06/24 02:33:58;;;;;;;;;3.00;3.00;;;;;;;;4968597;28;45919;-67
2022/06/24 02:36:23;;;;;;;;;3.00;3.00;;;;;;;;4970667;28;45546;-68
2022/06/24 02:38:48;;;;;;;;;2.50;2.50;;;;;;;;4970067;28;45705;-69
2022/06/24 02:41:13;;;;;;;;;3.00;3.00;;;;;;;;4970227;28;46012;-68
2022/06/24 02:43:39;;;;;;;;;4.00;4.00;;;;;;;;4970383;28;46001;-68
2022/06/24 02:46:06;;;;;;;;;4.00;4.00;;;;;;;;4969775;28;46167;-68
2022/06/24 02:48:33;;;;;;;;;5.75;5.75;;;;;;;;4970503;28;46554;-68
2022/06/24 02:50:59;;;;;;;;;3.25;3.25;;;;;;;;4969776;28;45684;-67
2022/06/24 02:53:25;;;;;;;;;4.50;4.50;;;;;;;;4969751;28;45561;-67
2022/06/24 02:55:52;;;;;;;;;6.50;6.00;;;;;;;;4969857;28;45554;-67
2022/06/24 02:58:17;;;;;;;;;5.00;3.50;;;;;;;;4969938;28;45952;-68
2022/06/24 03:00:43;;;;;;;;;4.75;4.50;;;;;;;;4971817;28;45476;-66
2022/06/24 03:03:09;;;;;;;;;3.00;3.00;;;;;;;;4992778;28;45774;-67
2022/06/24 03:05:34;;;;;;;;;4.75;4.25;;;;;;;;4963709;28;45549;-66
2022/06/24 03:07:59;;;;;;;;;4.00;4.00;;;;;;;;4961394;28;47323;-67
2022/06/24 03:10:25;;;;;;;;;4.00;4.00;;;;;;;;4972423;28;45497;-66
2022/06/24 03:12:50;;;;;;;;;5.25;5.00;;;;;;;;4973427;28;45446;-67
2022/06/24 03:15:15;;;;;;;;;4.00;4.00;;;;;;;;4973395;28;45573;-66
2022/06/24 03:17:41;;;;;;;;;3.25;2.25;;;;;;;;4972684;28;46196;-68
2022/06/24 03:20:07;;;;;;;;;3.00;3.00;;;;;;;;4972679;28;45526;-66
2022/06/24 03:22:33;;;;;;;;;3.00;2.50;;;;;;;;4972708;28;46037;-66
2022/06/24 03:24:58;;;;;;;;;3.25;3.25;;;;;;;;4971634;28;45599;-66
2022/06/24 03:27:23;;;;;;;;;4.00;4.00;;;;;;;;4972972;28;48239;-66
2022/06/24 03:29:49;;;;;;;;;4.00;4.00;;;;;;;;4972611;28;45949;-67
2022/06/24 03:32:14;;;;;;;;;4.75;3.25;;;;;;;;4972914;28;45547;-68
2022/06/24 03:34:39;;;;;;;;;4.00;4.00;;;;;;;;4972721;28;45559;-67
2022/06/24 03:37:04;;;;;;;;;3.00;3.00;;;;;;;;4972810;28;45873;-67
2022/06/24 03:39:30;;;;;;;;;3.50;3.50;;;;;;;;4990693;28;45719;-66
2022/06/24 03:41:55;;;;;;;;;4.00;4.00;;;;;;;;4970801;28;45495;-68
2022/06/24 03:44:20;;;;;;;;;3.00;3.00;;;;;;;;4999416;28;45566;-68
2022/06/24 03:46:46;;;;;;;;;4.25;3.50;;;;;;;;4961066;28;46209;-67
2022/06/24 03:49:11;;;;;;;;;2.25;2.00;;;;;;;;4972500;28;45684;-66
2022/06/24 03:51:36;;;;;;;;;3.00;3.00;;;;;;;;4973353;28;46036;-67
2022/06/24 03:54:01;;;;;;;;;3.75;3.75;;;;;;;;4972472;28;45790;-66
2022/06/24 03:56:27;;;;;;;;;5.25;5.25;;;;;;;;4972185;28;46139;-67
2022/06/24 03:58:52;;;;;;;;;3.75;3.75;;;;;;;;4972276;28;45569;-66
2022/06/24 04:01:17;;;;;;;;;3.00;3.00;;;;;;;;4972419;28;45457;-66
2022/06/24 04:03:43;;;;;;;;;4.75;4.75;;;;;;;;4971766;28;45465;-67
2022/06/24 04:06:08;;;;;;;;;5.50;5.50;;;;;;;;4972001;28;45529;-66
2022/06/24 04:08:34;;;;;;;;;4.50;4.50;;;;;;;;4972163;28;45603;-66
2022/06/24 04:11:07;;;;;;;;;5.25;5.25;;;;;;;;4971928;28;50234;-67
2022/06/24 04:13:32;;;;;;;;;3.00;3.00;;;;;;;;5003841;28;45581;-65
2022/06/24 04:15:57;;;;;;;;;4.00;4.00;;;;;;;;4972010;28;46628;-67
2022/06/24 04:18:22;;;;;;;;;5.00;5.00;;;;;;;;4972570;28;45679;-65
2022/06/24 04:20:47;;;;;;;;;3.50;3.50;;;;;;;;4972219;28;45798;-65
2022/06/24 04:23:13;;;;;;;;;3.25;3.25;;;;;;;;4971968;28;45525;-66
2022/06/24 04:25:38;;;;;;;;;4.50;3.75;;;;;;;;4971694;28;46520;-66
2022/06/24 04:28:04;;;;;;;;;4.25;4.25;;;;;;;;4972188;28;45422;-66
2022/06/24 04:30:29;;;;;;;;;4.25;4.25;;;;;;;;4972657;28;45965;-66
2022/06/24 04:32:54;;;;;;;;;5.00;5.00;;;;;;;;4971836;28;45490;-66
2022/06/24 04:35:20;;;;;;;;;5.00;4.25;;;;;;;;4971627;28;46563;-66
2022/06/24 04:37:45;;;;;;;;;5.25;4.25;;;;;;;;5003306;28;46236;-66
2022/06/24 04:40:11;;;;;;;;;5.25;5.25;;;;;;;;4971889;28;45574;-66
2022/06/24 04:42:37;;;;;;;;;6.25;6.25;;;;;;;;4972419;28;45517;-66
2022/06/24 04:45:02;;;;;;;;;4.00;4.00;;;;;;;;4971441;28;46644;-67
2022/06/24 04:47:28;;;;;;;;;4.50;4.50;;;;;;;;4971538;28;45534;-66
2022/06/24 04:49:53;;;;;;;;;6.75;5.00;;;;;;;;4971675;28;45841;-65
2022/06/24 04:52:18;;;;;;;;;4.25;4.25;;;;;;;;4971847;28;45442;-68
2022/06/24 04:54:44;;;;;;;;;4.00;4.00;;;;;;;;4970881;28;47564;-66
2022/06/24 04:57:11;;;;;;;;;5.75;5.75;;;;;;;;4971351;28;45574;-67
2022/06/24 04:59:36;;;;;;;;;5.75;4.75;;;;;;;;4970095;28;45507;-66
2022/06/24 05:02:01;;;;;;;;;7.00;6.00;;;;;;;;5002898;28;45538;-67
2022/06/24 05:04:26;;;;;;;;;3.00;3.00;;;;;;;;4971308;28;46497;-66
2022/06/24 05:06:52;;;;;;;;;4.75;4.75;;;;;;;;4971439;28;45811;-65
2022/06/24 05:09:17;;;;;;;;;5.00;4.75;;;;;;;;4991225;28;45608;-66
2022/06/24 05:11:42;;;;;;;;;5.75;5.75;;;;;;;;4967720;28;45547;-66
2022/06/24 05:14:07;;;;;;;;;7.00;6.00;;;;;;;;4971398;28;46726;-67
2022/06/24 05:16:33;;;;;;;;;4.00;4.00;;;;;;;;4971299;28;45528;-66
2022/06/24 05:18:58;;;;;;;;;4.50;4.50;;;;;;;;4971557;28;45424;-67
2022/06/24 05:21:23;;;;;;;;;4.75;4.75;;;;;;;;4971666;28;45940;-67
2022/06/24 05:23:49;;;;;;;;;4.00;4.00;;;;;;;;4969876;28;46539;-67
2022/06/24 05:26:14;;;;;;;;;5.00;5.00;;;;;;;;4970995;28;45470;-66
2022/06/24 05:28:39;;;;;;;;;4.50;4.50;;;;;;;;4971286;28;45505;-66
2022/06/24 05:31:04;;;;;;;;;7.25;7.25;;;;;;;;4971231;28;45974;-67
2022/06/24 05:33:31;;;;;;;;;5.00;5.00;;;;;;;;4971249;28;46427;-66
2022/06/24 05:35:58;;;;;;;;;7.00;7.00;;;;;;;;4970853;28;45465;-66
2022/06/24 05:38:23;;;;;;;;;6.50;6.50;;;;;;;;4970996;28;45868;-67
2022/06/24 05:40:49;;;;;;;;;5.25;5.25;;;;;;;;4970819;28;45520;-67
2022/06/24 05:43:15;;;;;;;;;7.75;7.75;;;;;;;;4970902;28;46490;-67
2022/06/24 05:45:40;;;;;;;;;5.75;4.50;;;;;;;;4971318;28;45576;-67
2022/06/24 05:48:05;;;;;;;;;6.75;6.75;;;;;;;;4991470;28;45830;-67
2022/06/24 05:50:30;;;;;;;;;5.00;5.00;;;;;;;;4960826;28;45740;-66
2022/06/24 05:55:39;;;;;;;;;4.50;4.50;;;;;;;;4970775;28;45695;-67
2022/06/24 05:58:04;;;;;;;;;7.00;7.00;;;;;;;;4970440;28;45513;-67
2022/06/24 06:00:31;;;;;;;;;4.00;4.00;;;;;;;;4971238;28;45549;-66
2022/06/24 06:02:56;;;;;;;;;5.25;5.25;;;;;;;;4970389;28;45749;-66
2022/06/24 06:05:21;;;;;;;;;5.00;5.00;;;;;;;;4997034;28;45518;-67
2022/06/24 06:07:46;;;;;;;;;6.75;6.75;;;;;;;;4959430;28;46254;-67
2022/06/24 06:10:11;;;;;;;;;5.00;5.00;;;;;;;;4970333;28;45626;-68
2022/06/24 06:12:37;;;;;;;;;6.00;6.00;;;;;;;;4970832;28;45743;-68
2022/06/24 06:15:02;;;;;;;;;5.25;5.25;;;;;;;;4970290;28;45514;-66
2022/06/24 06:17:27;;;;;;;;;5.25;5.25;;;;;;;;4970259;28;45861;-68
2022/06/24 06:19:52;;;;;;;;;6.50;5.50;;;;;;;;4970361;28;45487;-67
2022/06/24 06:22:18;;;;;;;;;6.00;6.00;;;;;;;;4970415;28;45679;-67
2022/06/24 06:24:43;;;;;;;;;6.00;5.75;;;;;;;;4970834;28;45600;-66
2022/06/24 06:27:08;;;;;;;;;3.75;3.75;;;;;;;;4970032;28;45468;-68
2022/06/24 06:29:34;;;;;;;;;5.50;5.50;;;;;;;;4970247;28;45922;-67
2022/06/24 06:31:59;;;;;;;;;5.50;5.50;;;;;;;;4969877;28;45615;-68
2022/06/24 06:34:24;;;;;;;;;5.00;5.00;;;;;;;;5001046;28;45786;-66
2022/06/24 06:36:49;;;;;;;;;4.75;4.75;;;;;;;;4968984;28;45473;-68
2022/06/24 06:39:14;;;;;;;;;4.00;4.00;;;;;;;;4970436;28;46011;-67
2022/06/24 06:41:40;;;;;;;;;3.25;3.25;;;;;;;;4969865;28;45606;-65
2022/06/24 06:44:05;;;;;;;;;6.25;5.75;;;;;;;;4969735;28;45843;-67
2022/06/24 06:46:30;;;;;;;;;5.25;4.25;;;;;;;;4970107;28;45672;-67
2022/06/24 06:48:56;;;;;;;;;5.50;4.50;;;;;;;;4970290;28;45931;-67
2022/06/24 06:51:21;;;;;;;;;4.75;4.75;;;;;;;;4970128;28;46465;-68
2022/06/24 06:53:46;;;;;;;;;4.50;4.50;;;;;;;;4969793;28;45537;-69
2022/06/24 06:56:11;;;;;;;;;3.50;3.50;;;;;;;;4969975;28;46129;-68
2022/06/24 06:58:37;;;;;;;;;3.25;3.25;;;;;;;;4970073;28;46034;-67
2022/06/24 07:01:02;;;;;;;;;6.00;4.00;;;;;;;;4968196;28;48381;-67
2022/06/24 07:03:27;;;;;;;;;5.50;3.00;;;;;;;;4970396;28;45418;-68
2022/06/24 07:05:52;;;;;;;;;5.50;4.00;;;;;;;;4968295;28;45817;-66
2022/06/24 07:08:17;;;;;;;;;6.00;5.00;;;;;;;;4997173;28;45684;-67
2022/06/24 07:10:43;;;;;;;;;4.25;4.25;;;;;;;;4957739;28;45564;-67
2022/06/24 07:13:09;;;;;;;;;5.00;5.00;;;;;;;;4969879;28;45738;-66
2022/06/24 07:15:34;;;;;;;;;4.00;4.00;;;;;;;;4969988;28;45498;-66
2022/06/24 07:18:00;;;;;;;;;5.50;4.00;;;;;;;;4991153;28;45577;-68
2022/06/24 07:20:25;;;;;;;;;5.50;4.50;;;;;;;;4963393;28;45624;-67
2022/06/24 07:22:51;;;;;;;;;5.25;5.25;;;;;;;;4969786;28;45621;-67
2022/06/24 07:25:16;;;;;;;;;4.00;4.00;;;;;;;;4970412;28;45388;-66
2022/06/24 07:27:41;;;;;;;;;4.25;4.25;;;;;;;;4970010;28;45394;-67
2022/06/24 07:30:06;;;;;;;;;4.25;4.25;;;;;;;;4969303;28;45607;-67
2022/06/24 07:32:32;;;;;;;;;6.50;4.75;;;;;;;;4994579;28;45460;-67
2022/06/24 07:34:57;;;;;;;;;4.50;4.00;;;;;;;;4959537;28;45650;-67
2022/06/24 07:37:22;;;;;;;;;5.50;4.25;;;;;;;;5000799;28;45358;-67
2022/06/24 07:39:47;;;;;;;;;4.50;3.75;;;;;;;;4969530;28;45577;-68
2022/06/24 07:42:12;;;;;;;;;5.00;4.50;;;;;;;;4969399;28;45496;-67
2022/06/24 07:44:43;;;;;;;;;5.00;3.50;;;;;;;;4969320;28;46287;-67
2022/06/24 07:47:08;;;;;;;;;5.00;3.75;;;;;;;;5002856;28;45628;-68
2022/06/24 07:49:33;;;;;;;;;7.00;7.00;;;;;;;;4969601;28;47751;-67
2022/06/24 07:51:58;;;;;;;;;5.50;3.75;;;;;;;;4972492;28;45641;-67
2022/06/24 07:54:24;;;;;;;;;6.75;5.25;;;;;;;;4973038;28;45440;-68
2022/06/24 07:56:58;;;;;;;;;5.25;4.75;;;;;;;;4972374;28;45553;-67
2022/06/24 07:59:28;;;;;;;;;4.00;4.00;;;;;;;;4972261;28;46552;-67
2022/06/24 08:01:53;;;;;;;;;3.75;3.75;;;;;;;;4972218;28;45573;-68
2022/06/24 08:04:22;;;;;;;;;4.00;3.75;;;;;;;;4972625;28;45582;-68
2022/06/24 08:06:49;;;;;;;;;3.50;3.25;;;;;;;;4971306;28;45737;-67
2022/06/24 08:09:16;;;;;;;;;4.00;4.00;;;;;;;;4971998;28;45729;-67
2022/06/24 08:11:41;;;;;;;;;1.00;1.00;;;;;;;;4996405;28;45426;-68
2022/06/24 08:14:06;;;;;;;;;5.25;3.00;;;;;;;;4963447;28;45403;-67
2022/06/24 08:16:32;;;;;;;;;5.00;5.00;;;;;;;;4972179;28;45763;-67
2022/06/24 08:18:57;;;;;;;;;3.50;3.50;;;;;;;;4970552;28;48644;-68
2022/06/24 08:21:22;;;;;;;;;5.00;4.00;;;;;;;;4972543;28;46154;-67
2022/06/24 08:23:49;;;;;;;;;3.75;3.75;;;;;;;;4971997;28;46135;-68
2022/06/24 08:26:16;;;;;;;;;6.00;4.50;;;;;;;;4971830;28;45631;-66
2022/06/24 08:28:41;;;;;;;;;3.25;3.25;;;;;;;;4971612;28;45940;-69
2022/06/24 08:31:06;;;;;;;;;3.00;3.00;;;;;;;;4970260;28;46599;-69
2022/06/24 08:33:31;;;;;;;;;4.25;4.25;;;;;;;;4972307;28;46752;-68
2022/06/24 08:35:57;;;;;;;;;5.00;3.00;;;;;;;;4970530;28;45512;-69
2022/06/24 08:38:22;;;;;;;;;1.00;1.00;;;;;;;;4971608;28;45717;-69
2022/06/24 08:40:48;;;;;;;;;4.50;4.50;;;;;;;;5003217;28;45501;-68
2022/06/24 08:43:14;;;;;;;;;2.25;2.25;;;;;;;;4956304;28;45501;-69
2022/06/24 08:45:40;;;;;;;;;2.50;2.50;;;;;;;;4972269;28;45573;-68
2022/06/24 08:48:08;;;;;;;;;2.00;2.00;;;;;;;;4992422;28;48705;-69
2022/06/24 08:50:34;;;;;;;;;5.00;3.50;;;;;;;;4962254;28;46421;-68
2022/06/24 08:53:02;;;;;;;;;4.00;3.00;;;;;;;;4962049;28;45461;-69
2022/06/24 08:55:28;;;;;;;;;3.00;3.00;;;;;;;;4971789;28;45581;-69
2022/06/24 08:57:53;;;;;;;;;4.25;4.25;;;;;;;;4971423;28;45709;-68
2022/06/24 09:00:19;;;;;;;;;1.50;1.50;;;;;;;;4971763;28;45514;-68
2022/06/24 09:02:44;;;;;;;;;1.00;1.00;;;;;;;;4995609;28;45413;-68
2022/06/24 09:05:10;;;;;;;;;2.50;2.50;;;;;;;;4963348;28;45479;-68
2022/06/24 09:07:35;;;;;;;;;3.25;2.75;;;;;;;;4971316;28;46440;-70
2022/06/24 09:10:04;;;;;;;;;2.75;2.75;;;;;;;;4971123;28;45820;-70
2022/06/24 09:12:30;;;;;;;;;2.00;2.00;;;;;;;;4972102;28;45988;-69
2022/06/24 09:14:55;;;;;;;;;3.25;2.25;;;;;;;;4971091;28;46023;-69
2022/06/24 09:17:47;;;;;;;;;4.00;2.75;;;;;;;;4998028;28;46404;-67
2022/06/24 09:20:13;;;;;;;;;4.75;2.00;;;;;;;;4976710;28;45722;-67
2022/06/24 09:22:39;;;;;;;;;2.75;1.75;;;;;;;;5002648;28;45556;-69
2022/06/24 09:25:05;;;;;;;;;1.00;1.00;;;;;;;;4971179;28;45739;-68
2022/06/24 09:27:30;;;;;;;;;1.00;1.00;;;;;;;;4971384;28;45919;-70
2022/06/24 09:29:56;;;;;;;;;5.00;2.00;;;;;;;;4970515;28;45572;-70
2022/06/24 09:32:21;;;;;;;;;2.25;2.25;;;;;;;;4970908;28;45533;-70
2022/06/24 09:34:59;;;;;;;;;1.25;1.25;;;;;;;;4970859;28;46131;-69
2022/06/24 09:37:33;;;;;;;;;2.50;2.50;;;;;;;;4956400;28;45778;-70
2022/06/24 09:40:13;;;;;;;;;4.00;2.75;;;;;;;;4969233;28;45639;-70
2022/06/24 09:42:38;;;;;;;;;3.00;3.00;;;;;;;;4971195;28;45398;-68
2022/06/24 09:45:04;;;;;;;;;2.00;1.50;;;;;;;;4991639;28;45578;-67
2022/06/24 09:47:29;;;;;;;;;2.00;2.00;;;;;;;;4960051;28;48426;-69
2022/06/24 09:49:55;;;;;;;;;3.00;2.00;;;;;;;;4960330;28;46009;-70
2022/06/24 09:52:20;;;;;;;;;2.00;2.00;;;;;;;;4969576;28;45528;-69
2022/06/24 09:54:46;;;;;;;;;2.25;2.25;;;;;;;;4971565;28;45580;-68
2022/06/24 09:57:12;;;;;;;;;3.00;1.00;;;;;;;;4970411;28;46440;-69
2022/06/24 10:02:22;;;;;;;;;2.25;2.25;;;;;;;;4963562;28;45947;-68
2022/06/24 10:04:50;;;;;;;;;2.75;1.00;;;;;;;;4970281;28;45627;-68
2022/06/24 10:07:15;;;;;;;;;2.00;2.00;;;;;;;;4954746;28;45798;-68
2022/06/24 10:09:40;;;;;;;;;1.00;1.00;;;;;;;;4970253;28;45672;-67
2022/06/24 10:12:06;;;;;;;;;1.00;1.00;;;;;;;;4969379;28;45765;-66
2022/06/24 10:14:33;;;;;;;;;0.00;0.00;;;;;;;;4970473;28;46104;-68
2022/06/24 10:16:59;;;;;;;;;1.00;1.00;;;;;;;;4968953;28;48034;-69
2022/06/24 10:19:26;;;;;;;;;0.75;0.25;;;;;;;;4970704;28;45695;-68
2022/06/24 10:21:51;;;;;;;;;1.00;1.00;;;;;;;;4969334;28;45442;-69
2022/06/24 10:24:17;;;;;;;;;1.00;1.00;;;;;;;;4970774;28;45548;-69
2022/06/24 10:26:46;;;;;;;;;2.00;1.00;;;;;;;;4994299;28;47516;-70
2022/06/24 10:29:22;;;;;;;;;1.00;1.00;;;;;;;;4962197;28;45655;-67
2022/06/24 10:34:20;;;;;;;;;2.00;2.00;;;;;;;;4955135;28;45475;-68
2022/06/24 10:36:46;;;;;;;;;4.00;2.00;;;;;;;;4970829;28;45503;-69
2022/06/24 10:39:12;;;;;;;;;1.00;1.00;;;;;;;;4969820;28;45998;-68
2022/06/24 10:41:38;;;;;;;;;1.00;1.00;;;;;;;;4970209;28;46167;-70
2022/06/24 10:44:18;;;;;;;;;1.00;1.00;;;;;;;;5001572;28;45878;-68
2022/06/24 10:46:43;;;;;;;;;2.00;2.00;;;;;;;;4970134;28;45511;-67
2022/06/24 10:49:09;;;;;;;;;2.50;1.75;;;;;;;;4970182;28;45418;-68
2022/06/24 10:51:34;;;;;;;;;1.00;1.00;;;;;;;;4970910;28;45521;-69
2022/06/24 10:54:03;;;;;;;;;0.50;0.50;;;;;;;;4992171;28;45578;-68
2022/06/24 10:56:37;;;;;;;;;0.00;0.00;;;;;;;;4964138;28;46902;-68
2022/06/24 10:59:02;;;;;;;;;1.00;1.00;;;;;;;;5001336;28;46331;-68
2022/06/24 11:01:27;;;;;;;;;0.00;0.00;;;;;;;;4970431;28;45739;-68
2022/06/24 11:03:53;;;;;;;;;1.00;1.00;;;;;;;;4970343;28;45539;-68
2022/06/24 11:06:18;;;;;;;;;0.50;0.25;;;;;;;;4967731;28;48635;-67
2022/06/24 11:08:43;;;;;;;;;1.50;0.25;;;;;;;;4993773;28;45446;-68
2022/06/24 11:11:08;;;;;;;;;2.00;2.00;;;;;;;;4961548;28;47663;-68
2022/06/24 11:13:34;;;;;;;;;1.50;1.50;;;;;;;;5001598;28;45882;-68
2022/06/24 11:15:59;;;;;;;;;1.00;1.00;;;;;;;;4969983;28;45628;-69
2022/06/24 11:18:25;;;;;;;;;1.00;1.00;;;;;;;;4970357;28;45814;-68
2022/06/24 11:20:54;;;;;;;;;2.50;2.50;;;;;;;;4993674;28;45626;-68
2022/06/24 11:23:19;;;;;;;;;2.50;2.00;;;;;;;;4966075;28;45618;-67
2022/06/24 11:25:46;;;;;;;;;1.00;1.00;;;;;;;;4972977;28;46546;-69
2022/06/24 11:28:18;;;;;;;;;1.00;1.00;;;;;;;;4973256;28;45448;-68
2022/06/24 11:30:44;;;;;;;;;1.75;1.00;;;;;;;;4969736;28;46066;-68
2022/06/24 11:33:09;;;;;;;;;2.00;2.00;;;;;;;;4972757;28;45490;-69
2022/06/24 11:35:34;;;;;;;;;2.00;2.00;;;;;;;;4971606;28;47241;-69
2022/06/24 11:38:04;;;;;;;;;1.75;1.75;;;;;;;;4973100;28;45635;-68
2022/06/24 11:40:33;;;;;;;;;2.00;2.00;;;;;;;;4973048;28;45456;-68
2022/06/24 11:43:03;;;;;;;;;1.25;1.25;;;;;;;;4972931;28;45415;-69
2022/06/24 11:45:31;;;;;;;;;1.75;1.75;;;;;;;;4973208;28;45703;-67
2022/06/24 11:47:57;;;;;;;;;2.25;2.25;;;;;;;;4972134;28;45569;-69
2022/06/24 11:50:22;;;;;;;;;0.50;0.50;;;;;;;;4999471;28;45600;-66
2022/06/24 11:52:48;;;;;;;;;1.50;1.50;;;;;;;;4961474;28;45432;-67
2022/06/24 11:55:27;;;;;;;;;2.00;2.00;;;;;;;;4972691;28;45825;-67
2022/06/24 11:57:57;;;;;;;;;2.00;2.00;;;;;;;;4972616;28;45489;-68
2022/06/24 12:00:23;;;;;;;;;4.00;2.00;;;;;;;;4973042;28;45584;-67
2022/06/24 12:02:48;;;;;;;;;2.25;2.00;;;;;;;;4972426;28;45606;-68
2022/06/24 12:05:14;;;;;;;;;2.50;2.50;;;;;;;;4972491;28;45680;-69
2022/06/24 12:07:39;;;;;;;;;0.00;0.00;;;;;;;;5004014;28;46141;-68
2022/06/24 12:10:06;;;;;;;;;0.00;0.00;;;;;;;;4971208;28;45494;-68
2022/06/24 12:12:31;;;;;;;;;0.00;0.00;;;;;;;;4973233;28;45536;-68
2022/06/24 12:14:57;;;;;;;;;0.00;0.00;;;;;;;;4972226;28;45830;-68
2022/06/24 12:17:22;;;;;;;;;1.00;1.00;;;;;;;;4972316;28;45558;-69
2022/06/24 12:19:58;;;;;;;;;1.00;1.00;;;;;;;;4972662;28;45354;-69
2022/06/24 12:22:24;;;;;;;;;1.00;1.00;;;;;;;;4955127;28;45995;-68
2022/06/24 12:24:58;;;;;;;;;0.00;0.00;;;;;;;;4972669;28;45582;-67
2022/06/24 12:27:30;;;;;;;;;1.00;1.00;;;;;;;;4972461;28;45951;-68
2022/06/24 12:29:56;;;;;;;;;1.25;1.25;;;;;;;;4972190;28;45610;-68
2022/06/24 12:32:21;;;;;;;;;1.00;1.00;;;;;;;;4970430;28;45785;-69
2022/06/24 12:34:52;;;;;;;;;2.00;2.00;;;;;;;;4972111;28;46045;-69
2022/06/24 12:37:19;;;;;;;;;1.00;1.00;;;;;;;;4988275;28;46307;-70
2022/06/24 12:39:47;;;;;;;;;1.00;1.00;;;;;;;;4972892;28;45535;-67
2022/06/24 12:42:17;;;;;;;;;0.50;0.50;;;;;;;;4972183;28;45752;-68
2022/06/24 12:44:44;;;;;;;;;0.00;0.00;;;;;;;;4996356;28;46594;-69
2022/06/24 12:52:41;;;;;;;;;3.25;2.25;;;;;;;;4972047;28;46018;-69
2022/06/24 12:55:08;;;;;;;;;0.50;0.50;;;;;;;;4970379;28;47385;-68
2022/06/24 12:57:34;;;;;;;;;2.00;2.00;;;;;;;;4989763;28;45469;-69
2022/06/24 12:59:59;;;;;;;;;4.25;3.25;;;;;;;;4965458;28;45926;-68
2022/06/24 13:02:24;;;;;;;;;4.75;4.75;;;;;;;;4996432;28;45413;-69
2022/06/24 13:04:49;;;;;;;;;4.00;3.00;;;;;;;;4971661;28;45653;-69
2022/06/24 13:07:15;;;;;;;;;1.50;1.50;;;;;;;;4969966;28;45966;-68
2022/06/24 13:09:40;;;;;;;;;1.00;1.00;;;;;;;;4972108;28;45456;-70
2022/06/24 13:12:05;;;;;;;;;2.00;1.00;;;;;;;;4992521;28;45465;-70
2022/06/24 13:14:31;;;;;;;;;0.00;0.00;;;;;;;;4965345;28;45613;-68
2022/06/24 13:16:56;;;;;;;;;1.25;1.25;;;;;;;;4971301;28;45546;-69
2022/06/24 13:19:21;;;;;;;;;1.00;1.00;;;;;;;;4971360;28;45524;-69
2022/06/24 13:21:46;;;;;;;;;1.50;1.50;;;;;;;;4970576;28;45649;-68
2022/06/24 13:24:12;;;;;;;;;2.00;2.00;;;;;;;;4971072;28;45619;-69
2022/06/24 13:26:37;;;;;;;;;2.75;2.00;;;;;;;;4970636;28;45572;-69
2022/06/24 13:29:02;;;;;;;;;2.00;1.00;;;;;;;;4971187;28;50188;-68
2022/06/24 13:31:27;;;;;;;;;1.00;1.00;;;;;;;;5002445;28;45343;-68
2022/06/24 13:33:52;;;;;;;;;3.00;1.25;;;;;;;;4969707;28;47685;-70
2022/06/24 13:36:18;;;;;;;;;0.50;0.50;;;;;;;;4971443;28;45515;-68
2022/06/24 13:38:43;;;;;;;;;1.25;1.25;;;;;;;;4995216;28;45514;-67
2022/06/24 13:41:08;;;;;;;;;1.00;1.00;;;;;;;;4962068;28;45597;-68
2022/06/24 13:43:33;;;;;;;;;1.00;1.00;;;;;;;;4969990;28;46053;-68
2022/06/24 13:45:59;;;;;;;;;2.00;2.00;;;;;;;;4970715;28;45964;-69
2022/06/24 13:48:24;;;;;;;;;1.00;1.00;;;;;;;;4990105;28;45999;-69
2022/06/24 13:50:49;;;;;;;;;1.50;1.50;;;;;;;;4967621;28;45583;-68
2022/06/24 13:53:14;;;;;;;;;1.75;1.75;;;;;;;;5001959;28;47655;-69
2022/06/24 13:55:40;;;;;;;;;1.00;1.00;;;;;;;;4967972;28;45514;-69
2022/06/24 13:58:05;;;;;;;;;1.00;1.00;;;;;;;;4969346;28;45501;-68
2022/06/24 14:00:30;;;;;;;;;1.00;1.00;;;;;;;;4971335;28;45716;-68
2022/06/24 14:02:55;;;;;;;;;2.00;1.00;;;;;;;;4993107;28;48319;-68
2022/06/24 14:05:21;;;;;;;;;0.50;0.50;;;;;;;;4990822;28;45899;-68
2022/06/24 14:07:47;;;;;;;;;0.50;0.50;;;;;;;;4958916;28;45455;-69
2022/06/24 14:10:12;;;;;;;;;1.00;1.00;;;;;;;;4970545;28;45732;-69
2022/06/24 14:12:37;;;;;;;;;1.00;1.00;;;;;;;;4970820;28;47139;-69
2022/06/24 14:15:03;;;;;;;;;2.00;2.00;;;;;;;;4969713;28;45553;-69
2022/06/24 14:17:29;;;;;;;;;1.00;1.00;;;;;;;;4963833;28;45589;-69
2022/06/24 14:19:54;;;;;;;;;1.00;1.00;;;;;;;;4967086;28;45533;-68
2022/06/24 14:22:19;;;;;;;;;1.00;1.00;;;;;;;;4968147;28;46540;-70
2022/06/24 14:24:45;;;;;;;;;2.00;2.00;;;;;;;;4968314;28;45550;-66
2022/06/24 14:27:10;;;;;;;;;1.00;1.00;;;;;;;;4954550;28;45845;-69
2022/06/24 14:29:36;;;;;;;;;0.25;0.25;;;;;;;;4963321;28;46121;-67
2022/06/24 14:32:02;;;;;;;;;1.00;1.00;;;;;;;;5000512;28;47702;-66
2022/06/24 14:34:27;;;;;;;;;1.00;1.00;;;;;;;;4969198;28;45581;-65
2022/06/24 14:36:53;;;;;;;;;1.50;1.50;;;;;;;;4970022;28;45732;-65
2022/06/24 14:42:03;;;;;;;;;1.00;1.00;;;;;;;;4969456;28;45882;-66
2022/06/24 14:44:28;;;;;;;;;1.00;1.00;;;;;;;;4969194;28;45762;-65
2022/06/24 14:46:53;;;;;;;;;1.25;1.25;;;;;;;;4969289;28;45692;-67
2022/06/24 14:49:19;;;;;;;;;2.00;2.00;;;;;;;;4969538;28;45489;-66
2022/06/24 14:51:45;;;;;;;;;2.75;2.00;;;;;;;;4970054;28;47751;-67
2022/06/24 14:54:10;;;;;;;;;1.00;1.00;;;;;;;;4964955;28;46082;-65
2022/06/24 14:56:35;;;;;;;;;2.75;2.00;;;;;;;;4971482;28;45454;-70